sensor_id;sensor_type;location;lat;lon;timestamp;temperature;humidity
15749;DHT22;7976;52.526;13.326;2022-09-03T00:02:38;16.10;99.90
15749;DHT22;7976;52.526;13.326;2022-09-03T00:05:13;16.10;99.90
15749;DHT22;7976;52.526;13.326;2022-09-03T00:07:53;16.10;99.90
15749;DHT22;7976;52.526;13.326;2022-09-03T00:10:30;16.00;99.90
15749;DHT22;7976;52.526;13.326;2022-09-03T00:13:04;16.00;99.90
15749;DHT22;7976;52.526;13.326;2022-09-03T00:15:35;16.00;99.90
15749;DHT22;7976;52.526;13.326;2022-09-03T00:18:11;15.90;99.90
15749;DHT22;7976;52.526;13.326;2022-09-03T00:20:44;15.90;99.90
15749;DHT22;7976;52.526;13.326;2022-09-03T00:23:19;15.90;99.90
15749;DHT22;7976;52.526;13.326;2022-09-03T00:25:51;15.90;99.90
15749;DHT22;7976;52.526;13.326;2022-09-03T00:28:25;15.90;99.90
15749;DHT22;7976;52.526;13.326;2022-09-03T00:31:05;15.80;99.90
15749;DHT22;7976;52.526;13.326;2022-09-03T00:33:39;15.80;99.90
15749;DHT22;7976;52.526;13.326;2022-09-03T00:36:13;15.80;99.90
15749;DHT22;7976;52.526;13.326;2022-09-03T00:38:44;15.80;99.90
15749;DHT22;7976;52.526;13.326;2022-09-03T00:41:24;15.80;99.90
15749;DHT22;7976;52.526;13.326;2022-09-03T00:44:12;15.70;99.90
15749;DHT22;7976;52.526;13.326;2022-09-03T00:46:56;15.70;99.90
15749;DHT22;7976;52.526;13.326;2022-09-03T00:49:40;15.70;99.90
15749;DHT22;7976;52.526;13.326;2022-09-03T00:52:24;15.60;99.90
15749;DHT22;7976;52.526;13.326;2022-09-03T00:55:15;15.60;99.90
15749;DHT22;7976;52.526;13.326;2022-09-03T00:58:01;15.60;99.90
15749;DHT22;7976;52.526;13.326;2022-09-03T01:00:38;15.60;99.90
15749;DHT22;7976;52.526;13.326;2022-09-03T01:03:10;15.60;99.90
15749;DHT22;7976;52.526;13.326;2022-09-03T01:06:03;15.50;99.90
15749;DHT22;7976;52.526;13.326;2022-09-03T01:08:58;15.50;99.90
15749;DHT22;7976;52.526;13.326;2022-09-03T01:11:40;15.50;99.90
15749;DHT22;7976;52.526;13.326;2022-09-03T01:14:23;15.50;99.90
15749;DHT22;7976;52.526;13.326;2022-09-03T01:17:04;15.50;99.90
15749;DHT22;7976;52.526;13.326;2022-09-03T01:19:57;15.50;99.90
15749;DHT22;7976;52.526;13.326;2022-09-03T01:26:38;15.40;99.90
15749;DHT22;7976;52.526;13.326;2022-09-03T01:29:26;15.30;99.90
15749;DHT22;7976;52.526;13.326;2022-09-03T01:32:06;15.30;99.90
15749;DHT22;7976;52.526;13.326;2022-09-03T01:34:46;15.30;99.90
15749;DHT22;7976;52.526;13.326;2022-09-03T01:37:26;15.30;99.90
15749;DHT22;7976;52.526;13.326;2022-09-03T01:40:10;15.20;99.90
15749;DHT22;7976;52.526;13.326;2022-09-03T01:42:57;15.20;99.90
15749;DHT22;7976;52.526;13.326;2022-09-03T01:45:40;15.20;99.90
15749;DHT22;7976;52.526;13.326;2022-09-03T01:48:28;15.10;99.90
15749;DHT22;7976;52.526;13.326;2022-09-03T01:51:09;15.10;99.90
15749;DHT22;7976;52.526;13.326;2022-09-03T01:54:14;15.10;99.90
15749;DHT22;7976;52.526;13.326;2022-09-03T01:57:23;15.10;99.90
15749;DHT22;7976;52.526;13.326;2022-09-03T02:00:09;15.10;99.90
15749;DHT22;7976;52.526;13.326;2022-09-03T02:02:40;15.10;99.90
15749;DHT22;7976;52.526;13.326;2022-09-03T02:05:14;15.10;99.90
15749;DHT22;7976;52.526;13.326;2022-09-03T02:07:44;15.10;99.90
15749;DHT22;7976;52.526;13.326;2022-09-03T02:10:15;15.10;99.90
15749;DHT22;7976;52.526;13.326;2022-09-03T02:12:46;15.00;99.90
15749;DHT22;7976;52.526;13.326;2022-09-03T02:15:20;15.00;99.90
15749;DHT22;7976;52.526;13.326;2022-09-03T02:17:52;15.00;99.90
15749;DHT22;7976;52.526;13.326;2022-09-03T02:20:24;15.00;99.90
15749;DHT22;7976;52.526;13.326;2022-09-03T02:22:54;15.00;99.90
15749;DHT22;7976;52.526;13.326;2022-09-03T02:25:28;15.00;99.90
15749;DHT22;7976;52.526;13.326;2022-09-03T02:27:58;15.00;99.90
15749;DHT22;7976;52.526;13.326;2022-09-03T02:30:26;15.00;99.90
15749;DHT22;7976;52.526;13.326;2022-09-03T02:32:54;14.90;99.90
15749;DHT22;7976;52.526;13.326;2022-09-03T02:35:21;14.90;99.90
15749;DHT22;7976;52.526;13.326;2022-09-03T02:37:48;14.90;99.90
15749;DHT22;7976;52.526;13.326;2022-09-03T02:40:15;14.90;99.90
15749;DHT22;7976;52.526;13.326;2022-09-03T02:42:43;14.90;99.90
15749;DHT22;7976;52.526;13.326;2022-09-03T02:45:19;14.80;99.90
15749;DHT22;7976;52.526;13.326;2022-09-03T02:47:55;14.80;99.90
15749;DHT22;7976;52.526;13.326;2022-09-03T02:50:25;14.80;99.90
15749;DHT22;7976;52.526;13.326;2022-09-03T02:52:53;14.80;99.90
15749;DHT22;7976;52.526;13.326;2022-09-03T02:55:20;14.80;99.90
15749;DHT22;7976;52.526;13.326;2022-09-03T02:57:47;14.80;99.90
15749;DHT22;7976;52.526;13.326;2022-09-03T03:00:14;14.70;99.90
15749;DHT22;7976;52.526;13.326;2022-09-03T03:02:41;14.70;99.90
15749;DHT22;7976;52.526;13.326;2022-09-03T03:05:16;14.70;99.90
15749;DHT22;7976;52.526;13.326;2022-09-03T03:07:50;14.70;99.90
15749;DHT22;7976;52.526;13.326;2022-09-03T03:10:17;14.60;99.90
15749;DHT22;7976;52.526;13.326;2022-09-03T03:12:43;14.60;99.90
15749;DHT22;7976;52.526;13.326;2022-09-03T03:15:10;14.60;99.90
15749;DHT22;7976;52.526;13.326;2022-09-03T03:17:37;14.50;99.90
15749;DHT22;7976;52.526;13.326;2022-09-03T03:20:04;14.50;99.90
15749;DHT22;7976;52.526;13.326;2022-09-03T03:22:34;14.50;99.90
15749;DHT22;7976;52.526;13.326;2022-09-03T03:25:00;14.50;99.90
15749;DHT22;7976;52.526;13.326;2022-09-03T03:27:27;14.50;99.90
15749;DHT22;7976;52.526;13.326;2022-09-03T03:29:54;14.50;99.90
15749;DHT22;7976;52.526;13.326;2022-09-03T03:32:22;14.50;99.90
15749;DHT22;7976;52.526;13.326;2022-09-03T03:34:49;14.40;99.90
15749;DHT22;7976;52.526;13.326;2022-09-03T03:37:16;14.40;99.90
15749;DHT22;7976;52.526;13.326;2022-09-03T03:39:44;14.40;99.90
15749;DHT22;7976;52.526;13.326;2022-09-03T03:42:10;14.40;99.90
15749;DHT22;7976;52.526;13.326;2022-09-03T03:44:38;14.40;99.90
15749;DHT22;7976;52.526;13.326;2022-09-03T03:47:06;14.40;99.90
15749;DHT22;7976;52.526;13.326;2022-09-03T03:49:33;14.40;99.90
15749;DHT22;7976;52.526;13.326;2022-09-03T03:52:00;14.40;99.90
15749;DHT22;7976;52.526;13.326;2022-09-03T03:54:28;14.40;99.90
15749;DHT22;7976;52.526;13.326;2022-09-03T03:56:56;14.40;99.90
15749;DHT22;7976;52.526;13.326;2022-09-03T03:59:23;14.30;99.90
15749;DHT22;7976;52.526;13.326;2022-09-03T04:01:50;14.30;99.90
15749;DHT22;7976;52.526;13.326;2022-09-03T04:04:19;14.30;99.90
15749;DHT22;7976;52.526;13.326;2022-09-03T04:06:46;14.30;99.90
15749;DHT22;7976;52.526;13.326;2022-09-03T04:09:13;14.30;99.90
15749;DHT22;7976;52.526;13.326;2022-09-03T04:11:40;14.30;99.90
15749;DHT22;7976;52.526;13.326;2022-09-03T04:14:08;14.30;99.90
15749;DHT22;7976;52.526;13.326;2022-09-03T04:16:36;14.30;99.90
15749;DHT22;7976;52.526;13.326;2022-09-03T04:19:02;14.30;99.90
15749;DHT22;7976;52.526;13.326;2022-09-03T04:21:30;14.30;99.90
15749;DHT22;7976;52.526;13.326;2022-09-03T04:23:57;14.30;99.90
15749;DHT22;7976;52.526;13.326;2022-09-03T04:26:26;14.40;99.90
15749;DHT22;7976;52.526;13.326;2022-09-03T04:28:55;14.40;99.90
15749;DHT22;7976;52.526;13.326;2022-09-03T04:31:24;14.40;99.90
15749;DHT22;7976;52.526;13.326;2022-09-03T04:33:51;14.40;99.90
15749;DHT22;7976;52.526;13.326;2022-09-03T04:36:20;14.40;99.90
15749;DHT22;7976;52.526;13.326;2022-09-03T04:38:51;14.40;99.90
15749;DHT22;7976;52.526;13.326;2022-09-03T04:41:20;14.40;99.90
15749;DHT22;7976;52.526;13.326;2022-09-03T04:43:49;14.30;99.90
15749;DHT22;7976;52.526;13.326;2022-09-03T04:46:18;14.40;99.90
15749;DHT22;7976;52.526;13.326;2022-09-03T04:48:48;14.30;99.90
15749;DHT22;7976;52.526;13.326;2022-09-03T04:51:18;14.30;99.90
15749;DHT22;7976;52.526;13.326;2022-09-03T04:53:47;14.30;99.90
15749;DHT22;7976;52.526;13.326;2022-09-03T04:56:22;14.30;99.90
15749;DHT22;7976;52.526;13.326;2022-09-03T04:58:54;14.30;99.90
15749;DHT22;7976;52.526;13.326;2022-09-03T05:01:23;14.30;99.90
15749;DHT22;7976;52.526;13.326;2022-09-03T05:03:53;14.30;99.90
15749;DHT22;7976;52.526;13.326;2022-09-03T05:06:20;14.30;99.90
15749;DHT22;7976;52.526;13.326;2022-09-03T05:08:47;14.30;99.90
15749;DHT22;7976;52.526;13.326;2022-09-03T05:11:15;14.30;99.90
15749;DHT22;7976;52.526;13.326;2022-09-03T05:13:42;14.30;99.90
15749;DHT22;7976;52.526;13.326;2022-09-03T05:16:12;14.30;99.90
15749;DHT22;7976;52.526;13.326;2022-09-03T05:18:39;14.30;99.90
15749;DHT22;7976;52.526;13.326;2022-09-03T05:21:09;14.40;99.90
15749;DHT22;7976;52.526;13.326;2022-09-03T05:23:38;14.40;99.90
15749;DHT22;7976;52.526;13.326;2022-09-03T05:26:10;14.30;99.90
15749;DHT22;7976;52.526;13.326;2022-09-03T05:28:40;14.30;99.90
15749;DHT22;7976;52.526;13.326;2022-09-03T05:31:09;14.30;99.90
15749;DHT22;7976;52.526;13.326;2022-09-03T05:33:38;14.30;99.90
15749;DHT22;7976;52.526;13.326;2022-09-03T05:36:11;14.40;99.90
15749;DHT22;7976;52.526;13.326;2022-09-03T05:38:39;14.40;99.90
15749;DHT22;7976;52.526;13.326;2022-09-03T05:41:07;14.40;99.90
15749;DHT22;7976;52.526;13.326;2022-09-03T05:43:36;14.40;99.90
15749;DHT22;7976;52.526;13.326;2022-09-03T05:46:04;14.40;99.90
15749;DHT22;7976;52.526;13.326;2022-09-03T05:48:34;14.40;99.90
15749;DHT22;7976;52.526;13.326;2022-09-03T05:51:03;14.40;99.90
15749;DHT22;7976;52.526;13.326;2022-09-03T05:53:35;14.40;99.90
15749;DHT22;7976;52.526;13.326;2022-09-03T05:56:05;14.40;99.90
15749;DHT22;7976;52.526;13.326;2022-09-03T05:58:36;14.50;99.90
15749;DHT22;7976;52.526;13.326;2022-09-03T06:01:19;14.50;99.90
15749;DHT22;7976;52.526;13.326;2022-09-03T06:03:53;14.50;99.90
15749;DHT22;7976;52.526;13.326;2022-09-03T06:06:23;14.50;99.90
15749;DHT22;7976;52.526;13.326;2022-09-03T06:08:53;14.60;99.90
15749;DHT22;7976;52.526;13.326;2022-09-03T06:11:22;14.60;99.90
15749;DHT22;7976;52.526;13.326;2022-09-03T06:13:52;14.60;99.90
15749;DHT22;7976;52.526;13.326;2022-09-03T06:16:20;14.60;99.90
15749;DHT22;7976;52.526;13.326;2022-09-03T06:18:48;14.70;99.90
15749;DHT22;7976;52.526;13.326;2022-09-03T06:21:15;14.70;99.90
15749;DHT22;7976;52.526;13.326;2022-09-03T06:23:42;14.80;99.90
15749;DHT22;7976;52.526;13.326;2022-09-03T06:26:15;14.80;99.90
15749;DHT22;7976;52.526;13.326;2022-09-03T06:28:44;14.90;99.90
15749;DHT22;7976;52.526;13.326;2022-09-03T06:31:14;15.00;99.90
15749;DHT22;7976;52.526;13.326;2022-09-03T06:33:42;15.00;99.90
15749;DHT22;7976;52.526;13.326;2022-09-03T06:36:11;15.00;99.90
15749;DHT22;7976;52.526;13.326;2022-09-03T06:38:40;15.10;99.90
15749;DHT22;7976;52.526;13.326;2022-09-03T06:41:10;15.10;99.90
15749;DHT22;7976;52.526;13.326;2022-09-03T06:43:41;15.20;99.90
15749;DHT22;7976;52.526;13.326;2022-09-03T06:46:10;15.20;99.90
15749;DHT22;7976;52.526;13.326;2022-09-03T06:48:40;15.20;99.90
15749;DHT22;7976;52.526;13.326;2022-09-03T06:51:09;15.30;99.90
15749;DHT22;7976;52.526;13.326;2022-09-03T06:53:38;15.30;99.90
15749;DHT22;7976;52.526;13.326;2022-09-03T06:56:08;15.30;99.90
15749;DHT22;7976;52.526;13.326;2022-09-03T06:58:39;15.40;99.90
15749;DHT22;7976;52.526;13.326;2022-09-03T07:01:09;15.40;99.90
15749;DHT22;7976;52.526;13.326;2022-09-03T07:03:39;15.50;99.90
15749;DHT22;7976;52.526;13.326;2022-09-03T07:06:12;15.50;99.90
15749;DHT22;7976;52.526;13.326;2022-09-03T07:08:42;15.60;99.90
15749;DHT22;7976;52.526;13.326;2022-09-03T07:11:11;15.60;99.90
15749;DHT22;7976;52.526;13.326;2022-09-03T07:13:42;15.70;99.90
15749;DHT22;7976;52.526;13.326;2022-09-03T07:16:15;15.70;99.90
15749;DHT22;7976;52.526;13.326;2022-09-03T07:18:46;15.70;99.90
15749;DHT22;7976;52.526;13.326;2022-09-03T07:21:15;15.80;99.90
15749;DHT22;7976;52.526;13.326;2022-09-03T07:23:43;15.80;99.90
15749;DHT22;7976;52.526;13.326;2022-09-03T07:26:14;15.80;99.90
15749;DHT22;7976;52.526;13.326;2022-09-03T07:28:43;16.00;99.90
15749;DHT22;7976;52.526;13.326;2022-09-03T07:31:13;16.10;99.90
15749;DHT22;7976;52.526;13.326;2022-09-03T07:33:43;16.20;99.90
15749;DHT22;7976;52.526;13.326;2022-09-03T07:36:12;16.20;99.90
15749;DHT22;7976;52.526;13.326;2022-09-03T07:38:41;16.20;99.90
15749;DHT22;7976;52.526;13.326;2022-09-03T07:41:11;16.30;99.90
15749;DHT22;7976;52.526;13.326;2022-09-03T07:43:41;16.30;99.90
15749;DHT22;7976;52.526;13.326;2022-09-03T07:46:13;16.40;99.90
15749;DHT22;7976;52.526;13.326;2022-09-03T07:48:45;16.50;99.90
15749;DHT22;7976;52.526;13.326;2022-09-03T07:51:15;16.60;99.90
15749;DHT22;7976;52.526;13.326;2022-09-03T07:53:43;16.70;99.90
15749;DHT22;7976;52.526;13.326;2022-09-03T07:56:10;16.70;99.90
15749;DHT22;7976;52.526;13.326;2022-09-03T07:58:38;16.80;99.90
15749;DHT22;7976;52.526;13.326;2022-09-03T08:01:07;16.90;99.90
15749;DHT22;7976;52.526;13.326;2022-09-03T08:03:37;16.90;99.90
15749;DHT22;7976;52.526;13.326;2022-09-03T08:06:08;16.90;99.90
15749;DHT22;7976;52.526;13.326;2022-09-03T08:08:36;17.00;99.90
15749;DHT22;7976;52.526;13.326;2022-09-03T08:11:06;17.10;99.90
15749;DHT22;7976;52.526;13.326;2022-09-03T08:13:36;17.20;99.90
15749;DHT22;7976;52.526;13.326;2022-09-03T08:16:05;17.30;99.90
15749;DHT22;7976;52.526;13.326;2022-09-03T08:18:33;17.30;99.90
15749;DHT22;7976;52.526;13.326;2022-09-03T08:21:04;17.40;99.90
15749;DHT22;7976;52.526;13.326;2022-09-03T08:23:36;17.40;99.90
15749;DHT22;7976;52.526;13.326;2022-09-03T08:26:03;17.50;99.90
15749;DHT22;7976;52.526;13.326;2022-09-03T08:28:30;17.50;99.90
15749;DHT22;7976;52.526;13.326;2022-09-03T08:31:04;17.60;99.90
15749;DHT22;7976;52.526;13.326;2022-09-03T08:33:31;17.70;99.90
15749;DHT22;7976;52.526;13.326;2022-09-03T08:36:08;17.70;99.90
15749;DHT22;7976;52.526;13.326;2022-09-03T08:38:38;17.70;99.90
15749;DHT22;7976;52.526;13.326;2022-09-03T08:41:11;17.90;99.90
15749;DHT22;7976;52.526;13.326;2022-09-03T08:43:55;18.00;99.90
15749;DHT22;7976;52.526;13.326;2022-09-03T08:46:46;18.10;99.90
15749;DHT22;7976;52.526;13.326;2022-09-03T08:49:22;18.20;99.90
15749;DHT22;7976;52.526;13.326;2022-09-03T08:51:55;18.30;99.90
15749;DHT22;7976;52.526;13.326;2022-09-03T08:54:29;18.30;99.90
15749;DHT22;7976;52.526;13.326;2022-09-03T08:57:00;18.30;99.90
15749;DHT22;7976;52.526;13.326;2022-09-03T08:59:29;18.40;99.90
15749;DHT22;7976;52.526;13.326;2022-09-03T09:02:08;18.50;99.90
15749;DHT22;7976;52.526;13.326;2022-09-03T09:04:58;18.60;99.90
15749;DHT22;7976;52.526;13.326;2022-09-03T09:07:38;18.70;99.90
15749;DHT22;7976;52.526;13.326;2022-09-03T09:10:16;18.70;99.90
15749;DHT22;7976;52.526;13.326;2022-09-03T09:12:57;18.70;99.90
15749;DHT22;7976;52.526;13.326;2022-09-03T09:15:42;18.70;99.90
15749;DHT22;7976;52.526;13.326;2022-09-03T09:18:20;18.80;99.90
15749;DHT22;7976;52.526;13.326;2022-09-03T09:21:00;18.90;99.90
15749;DHT22;7976;52.526;13.326;2022-09-03T09:23:38;19.00;99.90
15749;DHT22;7976;52.526;13.326;2022-09-03T09:26:12;19.10;99.90
15749;DHT22;7976;52.526;13.326;2022-09-03T09:28:43;19.20;99.90
15749;DHT22;7976;52.526;13.326;2022-09-03T09:31:14;19.40;99.90
15749;DHT22;7976;52.526;13.326;2022-09-03T09:33:47;19.40;99.90
15749;DHT22;7976;52.526;13.326;2022-09-03T09:36:17;19.50;99.90
15749;DHT22;7976;52.526;13.326;2022-09-03T09:38:46;19.70;99.90
15749;DHT22;7976;52.526;13.326;2022-09-03T09:41:14;19.70;99.90
15749;DHT22;7976;52.526;13.326;2022-09-03T09:43:43;19.80;99.90
15749;DHT22;7976;52.526;13.326;2022-09-03T09:46:15;19.90;99.90
15749;DHT22;7976;52.526;13.326;2022-09-03T09:48:48;19.90;99.90
15749;DHT22;7976;52.526;13.326;2022-09-03T09:51:19;20.00;99.90
15749;DHT22;7976;52.526;13.326;2022-09-03T09:53:59;20.10;99.90
15749;DHT22;7976;52.526;13.326;2022-09-03T09:56:28;20.20;99.90
15749;DHT22;7976;52.526;13.326;2022-09-03T09:59:02;20.20;99.90
15749;DHT22;7976;52.526;13.326;2022-09-03T10:01:31;20.30;99.90
15749;DHT22;7976;52.526;13.326;2022-09-03T10:04:07;20.40;99.90
15749;DHT22;7976;52.526;13.326;2022-09-03T10:06:36;20.50;99.90
15749;DHT22;7976;52.526;13.326;2022-09-03T10:09:23;20.50;99.90
15749;DHT22;7976;52.526;13.326;2022-09-03T10:12:00;20.60;99.90
15749;DHT22;7976;52.526;13.326;2022-09-03T10:14:43;20.70;99.90
15749;DHT22;7976;52.526;13.326;2022-09-03T10:17:17;20.70;99.90
15749;DHT22;7976;52.526;13.326;2022-09-03T10:19:54;20.80;99.90
15749;DHT22;7976;52.526;13.326;2022-09-03T10:22:48;20.90;98.90
15749;DHT22;7976;52.526;13.326;2022-09-03T10:25:21;20.90;98.90
15749;DHT22;7976;52.526;13.326;2022-09-03T10:27:51;21.00;99.10
15749;DHT22;7976;52.526;13.326;2022-09-03T10:30:21;21.00;98.50
15749;DHT22;7976;52.526;13.326;2022-09-03T10:33:00;21.10;98.70
15749;DHT22;7976;52.526;13.326;2022-09-03T10:35:38;21.10;98.30
15749;DHT22;7976;52.526;13.326;2022-09-03T10:38:16;21.00;98.60
15749;DHT22;7976;52.526;13.326;2022-09-03T10:40:55;20.90;98.70
15749;DHT22;7976;52.526;13.326;2022-09-03T10:43:53;20.80;98.90
15749;DHT22;7976;52.526;13.326;2022-09-03T10:46:46;20.70;98.60
15749;DHT22;7976;52.526;13.326;2022-09-03T10:49:31;20.70;98.40
15749;DHT22;7976;52.526;13.326;2022-09-03T10:52:10;20.70;98.20
15749;DHT22;7976;52.526;13.326;2022-09-03T10:54:52;20.90;98.30
15749;DHT22;7976;52.526;13.326;2022-09-03T10:57:33;20.80;98.30
15749;DHT22;7976;52.526;13.326;2022-09-03T11:00:12;20.90;98.10
15749;DHT22;7976;52.526;13.326;2022-09-03T11:02:58;21.00;98.20
15749;DHT22;7976;52.526;13.326;2022-09-03T11:05:53;21.10;98.40
15749;DHT22;7976;52.526;13.326;2022-09-03T11:08:30;21.20;98.10
15749;DHT22;7976;52.526;13.326;2022-09-03T11:11:08;21.20;97.80
15749;DHT22;7976;52.526;13.326;2022-09-03T11:13:45;21.10;97.90
15749;DHT22;7976;52.526;13.326;2022-09-03T11:16:18;21.10;97.80
15749;DHT22;7976;52.526;13.326;2022-09-03T11:18:52;21.10;97.70
15749;DHT22;7976;52.526;13.326;2022-09-03T11:21:24;21.10;98.00
15749;DHT22;7976;52.526;13.326;2022-09-03T11:24:01;21.20;98.10
15749;DHT22;7976;52.526;13.326;2022-09-03T11:26:33;21.30;98.30
15749;DHT22;7976;52.526;13.326;2022-09-03T11:29:09;21.60;98.30
15749;DHT22;7976;52.526;13.326;2022-09-03T11:31:48;21.80;98.00
15749;DHT22;7976;52.526;13.326;2022-09-03T11:34:29;21.90;97.50
15749;DHT22;7976;52.526;13.326;2022-09-03T11:37:18;21.90;97.40
15749;DHT22;7976;52.526;13.326;2022-09-03T11:39:55;21.80;96.70
15749;DHT22;7976;52.526;13.326;2022-09-03T11:42:34;21.80;96.00
15749;DHT22;7976;52.526;13.326;2022-09-03T11:45:20;21.70;96.20
15749;DHT22;7976;52.526;13.326;2022-09-03T11:47:59;21.70;95.90
15749;DHT22;7976;52.526;13.326;2022-09-03T11:50:27;21.60;95.90
15749;DHT22;7976;52.526;13.326;2022-09-03T11:53:08;21.40;96.00
15749;DHT22;7976;52.526;13.326;2022-09-03T11:55:51;21.30;96.30
15749;DHT22;7976;52.526;13.326;2022-09-03T11:58:25;21.30;96.10
15749;DHT22;7976;52.526;13.326;2022-09-03T12:00:57;21.40;96.20
15749;DHT22;7976;52.526;13.326;2022-09-03T12:03:29;21.40;96.30
15749;DHT22;7976;52.526;13.326;2022-09-03T12:06:27;21.50;96.20
15749;DHT22;7976;52.526;13.326;2022-09-03T12:09:29;21.50;96.10
15749;DHT22;7976;52.526;13.326;2022-09-03T12:12:17;21.50;96.00
15749;DHT22;7976;52.526;13.326;2022-09-03T12:15:03;21.40;96.20
15749;DHT22;7976;52.526;13.326;2022-09-03T12:17:45;21.40;96.10
15749;DHT22;7976;52.526;13.326;2022-09-03T12:20:37;21.30;95.50
15749;DHT22;7976;52.526;13.326;2022-09-03T12:23:05;21.30;95.70
15749;DHT22;7976;52.526;13.326;2022-09-03T12:25:32;21.30;95.90
15749;DHT22;7976;52.526;13.326;2022-09-03T12:28:00;21.30;95.80
15749;DHT22;7976;52.526;13.326;2022-09-03T12:30:29;21.30;95.90
15749;DHT22;7976;52.526;13.326;2022-09-03T12:33:04;21.30;95.50
15749;DHT22;7976;52.526;13.326;2022-09-03T12:35:32;21.30;94.90
15749;DHT22;7976;52.526;13.326;2022-09-03T12:37:59;21.30;94.70
15749;DHT22;7976;52.526;13.326;2022-09-03T12:40:28;21.30;94.40
15749;DHT22;7976;52.526;13.326;2022-09-03T12:43:11;21.40;94.00
15749;DHT22;7976;52.526;13.326;2022-09-03T12:45:43;21.50;94.00
15749;DHT22;7976;52.526;13.326;2022-09-03T12:48:14;21.60;94.00
15749;DHT22;7976;52.526;13.326;2022-09-03T12:50:42;21.70;94.00
15749;DHT22;7976;52.526;13.326;2022-09-03T12:53:13;21.80;94.10
15749;DHT22;7976;52.526;13.326;2022-09-03T12:55:52;22.00;93.80
15749;DHT22;7976;52.526;13.326;2022-09-03T12:58:23;22.00;93.50
15749;DHT22;7976;52.526;13.326;2022-09-03T13:00:56;22.00;93.30
15749;DHT22;7976;52.526;13.326;2022-09-03T13:03:42;22.00;93.10
15749;DHT22;7976;52.526;13.326;2022-09-03T13:06:15;22.10;93.20
15749;DHT22;7976;52.526;13.326;2022-09-03T13:08:49;22.20;93.20
15749;DHT22;7976;52.526;13.326;2022-09-03T13:11:19;22.20;93.10
15749;DHT22;7976;52.526;13.326;2022-09-03T13:13:53;22.10;92.30
15749;DHT22;7976;52.526;13.326;2022-09-03T13:19:46;22.00;92.90
15749;DHT22;7976;52.526;13.326;2022-09-03T13:22:32;22.10;92.80
15749;DHT22;7976;52.526;13.326;2022-09-03T13:25:13;22.20;92.80
15749;DHT22;7976;52.526;13.326;2022-09-03T13:27:57;22.30;92.90
15749;DHT22;7976;52.526;13.326;2022-09-03T13:30:36;22.30;92.60
15749;DHT22;7976;52.526;13.326;2022-09-03T13:33:13;22.10;92.70
15749;DHT22;7976;52.526;13.326;2022-09-03T13:35:52;22.00;92.90
15749;DHT22;7976;52.526;13.326;2022-09-03T13:38:28;21.80;93.20
15749;DHT22;7976;52.526;13.326;2022-09-03T13:41:02;21.70;93.20
15749;DHT22;7976;52.526;13.326;2022-09-03T13:43:47;21.60;93.20
15749;DHT22;7976;52.526;13.326;2022-09-03T13:46:24;21.50;92.90
15749;DHT22;7976;52.526;13.326;2022-09-03T13:49:01;21.40;92.90
15749;DHT22;7976;52.526;13.326;2022-09-03T13:51:57;21.30;93.00
15749;DHT22;7976;52.526;13.326;2022-09-03T13:54:30;21.30;93.40
15749;DHT22;7976;52.526;13.326;2022-09-03T13:57:04;21.30;93.80
15749;DHT22;7976;52.526;13.326;2022-09-03T13:59:39;21.30;93.40
15749;DHT22;7976;52.526;13.326;2022-09-03T14:02:19;21.40;93.40
15749;DHT22;7976;52.526;13.326;2022-09-03T14:05:04;21.50;93.40
15749;DHT22;7976;52.526;13.326;2022-09-03T14:07:47;21.60;93.50
15749;DHT22;7976;52.526;13.326;2022-09-03T14:10:29;21.60;93.40
15749;DHT22;7976;52.526;13.326;2022-09-03T14:13:11;21.60;93.40
15749;DHT22;7976;52.526;13.326;2022-09-03T14:15:48;21.60;93.10
15749;DHT22;7976;52.526;13.326;2022-09-03T14:18:38;21.50;93.30
15749;DHT22;7976;52.526;13.326;2022-09-03T14:21:14;21.50;93.30
15749;DHT22;7976;52.526;13.326;2022-09-03T14:23:50;21.50;92.90
15749;DHT22;7976;52.526;13.326;2022-09-03T14:26:28;21.60;92.90
15749;DHT22;7976;52.526;13.326;2022-09-03T14:28:58;21.60;92.90
15749;DHT22;7976;52.526;13.326;2022-09-03T14:31:40;21.60;93.10
15749;DHT22;7976;52.526;13.326;2022-09-03T14:34:29;21.70;93.00
15749;DHT22;7976;52.526;13.326;2022-09-03T14:37:07;21.70;92.70
15749;DHT22;7976;52.526;13.326;2022-09-03T14:39:52;21.80;92.80
15749;DHT22;7976;52.526;13.326;2022-09-03T14:45:59;21.80;92.80
15749;DHT22;7976;52.526;13.326;2022-09-03T14:49:00;21.80;93.00
15749;DHT22;7976;52.526;13.326;2022-09-03T14:51:51;21.70;93.00
15749;DHT22;7976;52.526;13.326;2022-09-03T14:54:43;21.70;93.00
15749;DHT22;7976;52.526;13.326;2022-09-03T14:57:52;21.80;92.90
15749;DHT22;7976;52.526;13.326;2022-09-03T15:00:33;21.90;92.60
15749;DHT22;7976;52.526;13.326;2022-09-03T15:03:22;22.00;92.80
15749;DHT22;7976;52.526;13.326;2022-09-03T15:06:06;22.10;92.90
15749;DHT22;7976;52.526;13.326;2022-09-03T15:09:08;22.20;92.90
15749;DHT22;7976;52.526;13.326;2022-09-03T15:11:49;22.30;92.40
15749;DHT22;7976;52.526;13.326;2022-09-03T15:14:24;22.30;92.20
15749;DHT22;7976;52.526;13.326;2022-09-03T15:16:59;22.20;92.00
15749;DHT22;7976;52.526;13.326;2022-09-03T15:19:42;22.10;92.20
15749;DHT22;7976;52.526;13.326;2022-09-03T15:22:31;22.00;92.20
15749;DHT22;7976;52.526;13.326;2022-09-03T15:25:17;21.90;92.40
15749;DHT22;7976;52.526;13.326;2022-09-03T15:28:08;21.90;92.30
15749;DHT22;7976;52.526;13.326;2022-09-03T15:30:44;21.80;92.40
15749;DHT22;7976;52.526;13.326;2022-09-03T15:33:27;21.60;92.60
15749;DHT22;7976;52.526;13.326;2022-09-03T15:36:12;21.50;92.40
15749;DHT22;7976;52.526;13.326;2022-09-03T15:38:49;21.50;92.60
15749;DHT22;7976;52.526;13.326;2022-09-03T15:41:30;21.50;92.70
15749;DHT22;7976;52.526;13.326;2022-09-03T15:44:06;21.40;92.60
15749;DHT22;7976;52.526;13.326;2022-09-03T15:46:51;21.50;92.90
15749;DHT22;7976;52.526;13.326;2022-09-03T15:49:43;21.50;92.90
15749;DHT22;7976;52.526;13.326;2022-09-03T15:52:28;21.50;92.90
15749;DHT22;7976;52.526;13.326;2022-09-03T15:55:06;21.40;92.40
15749;DHT22;7976;52.526;13.326;2022-09-03T15:57:41;21.40;92.30
15749;DHT22;7976;52.526;13.326;2022-09-03T16:00:18;21.40;92.20
15749;DHT22;7976;52.526;13.326;2022-09-03T16:02:50;21.40;92.10
15749;DHT22;7976;52.526;13.326;2022-09-03T16:05:35;21.30;92.30
15749;DHT22;7976;52.526;13.326;2022-09-03T16:08:12;21.30;92.40
15749;DHT22;7976;52.526;13.326;2022-09-03T16:10:55;21.30;92.50
15749;DHT22;7976;52.526;13.326;2022-09-03T16:13:38;21.30;92.60
15749;DHT22;7976;52.526;13.326;2022-09-03T16:16:18;21.30;92.60
15749;DHT22;7976;52.526;13.326;2022-09-03T16:18:58;21.40;92.40
15749;DHT22;7976;52.526;13.326;2022-09-03T16:21:36;21.30;92.50
15749;DHT22;7976;52.526;13.326;2022-09-03T16:24:16;21.30;92.60
15749;DHT22;7976;52.526;13.326;2022-09-03T16:26:50;21.30;93.10
15749;DHT22;7976;52.526;13.326;2022-09-03T16:29:25;21.40;92.60
15749;DHT22;7976;52.526;13.326;2022-09-03T16:32:06;21.40;92.80